This is the latest recevied weather packets stored in our database for station/object WJ9H. If no packets are shown the sender has not sent any weather packets the latest 10 day(s).
| Time | Temp. | Humidity | Pressure | Rain* | Wind** | Luminosity | Snow |
|---|---|---|---|---|---|---|---|
| 1778075835 | 6.67° C | - | 1014.6 hPa | 0 mm | - | - | - |
| 1778075688 | 7.22° C | - | 1014.6 hPa | 0 mm | - | - | - |
| 1778075380 | 6.67° C | - | 1014.6 hPa | 0 mm | - | - | - |
| 1778075197 | 6.11° C | - | 1014.6 hPa | 0 mm | - | - | - |
| 1778074778 | 6.11° C | - | 1014.6 hPa | 0 mm | - | - | - |
| 1778074635 | 5.56° C | - | 1014.3 hPa | 0 mm | - | - | - |
| 1778074488 | 6.11° C | - | 1014.6 hPa | 0 mm | - | - | - |
| 1778074178 | 5.56° C | - | 1014.3 hPa | 0 mm | - | - | - |
| 1778073846 | 5.56° C | - | 1014.3 hPa | 0 mm | - | - | - |
| 1778073577 | 5.56° C | - | 1014.3 hPa | 0 mm | - | - | - |
| 1778073435 | 5° C | - | 1013.9 hPa | 0 mm | - | - | - |
| 1778073288 | 5.56° C | - | 1014.3 hPa | 0 mm | - | - | - |
| 1778072979 | 5° C | - | 1013.9 hPa | 0 mm | - | - | - |
| 1778072378 | 5° C | - | 1013.9 hPa | 0 mm | - | - | - |
| 1778072196 | 5° C | - | 1013.9 hPa | 0 mm | - | - | - |
| 1778072088 | 5° C | - | 1013.9 hPa | 0 mm | - | - | - |
| 1778071775 | 5° C | - | 1013.9 hPa | 0 mm | - | - | - |
| 1778071178 | 3.89° C | - | 1013.9 hPa | 0 mm | - | - | - |
| 1778071035 | 3.89° C | - | 1013.9 hPa | 0 mm | - | - | - |
| 1778070888 | 3.33° C | - | 1013.9 hPa | 0 mm | - | - | - |
| 1778070577 | 3.89° C | - | 1013.9 hPa | 0 mm | - | - | - |
| 1778070023 | 3.89° C | - | 1013.9 hPa | 0 mm | - | - | - |
| 1778069977 | 3.89° C | - | 1013.9 hPa | 0 mm | - | - | - |
| 1778069688 | 3.89° C | - | 1013.9 hPa | 0 mm | - | - | - |
| 1778069466 | 3.89° C | - | 1013.6 hPa | 0 mm | - | - | - |
* Rain latest hour (hover to see other rain measurements)
** Current wind speed in m/s (hover to see current wind gust speed)